Google Maps JavaScript API Example
Pilot Flight Report # 94069 Submitted by : AST106 on 2020-05-22
Date: 2020-05-22Aircraft: Beechcraft B1900D
Flight No.: Not AvailableDistance (Nm): 73.11
Departure: VEBD - Baghdogra ABDestination: VQPR - Paro
 TimeFuelWeightSpeeds  
Out (Taxi)0544Z4515 lbs15449 lbs Flight RulesIFR
Off (Takeoff)0545Z 15440 lbs109 ktsFlight Level16000
On (Landing)0617Z 15017 lbs103 ktsVSTD-508 ft/min
In (Ramp)0618Z4080 lbs15013 lbs ZFW10930 lbs
Flight0.50  -  0:32422 lbs  Pax0
Block0.57  -  0:34435 lbs  Cargo0
Departure WeatherVEBD 220544Z 20008KT 17SM SCT019 SCT104 27/18 A2991
Destination WeatherVQPR 220618Z 00002KT 3SM +RA FEW106 SCT121 21/19 A3003
Flight Comments